Time;durP1;ratioP1;P1;durP2;ratioP2;P2;SDS_P1;SDS_P2;PMS_P1;PMS_P2;Temp;Humidity;BMP_temperature;BMP_pressure;BME280_temperature;BME280_humidity;BME280_pressure;Samples;Min_cycle;Max_cycle;Signal;HPM_P1;HPM_P2
2022/08/24 00:01:56;;;;;;;;;;;;;;;18.67;31.71;95760.94;4999000;28;19932;-67
2022/08/24 00:04:21;;;;;;;;;;;;;;;18.64;31.09;95757.88;4998884;28;19918;-67
2022/08/24 00:06:48;;;;;;;;;;;;;;;18.80;30.60;95746.47;4998004;28;19921;-67
2022/08/24 00:09:13;;;;;;;;;;;;;;;18.90;30.86;95756.72;4998785;28;19925;-68
2022/08/24 00:11:39;;;;;;;;;;;;;;;18.92;30.61;95751.91;4999573;28;19929;-68
2022/08/24 00:14:04;;;;;;;;;;;;;;;19.04;30.26;95754.66;5001630;28;19922;-68
2022/08/24 00:16:29;;;;;;;;;;;;;;;19.07;30.45;95751.50;4999343;28;19925;-67
2022/08/24 00:18:54;;;;;;;;;;;;;;;18.99;30.71;95756.38;5003423;28;19951;-67
2022/08/24 00:21:20;;;;;;;;;;;;;;;18.93;31.29;95752.72;5001641;28;19921;-67
2022/08/24 00:23:48;;;;;;;;;;;;;;;18.97;31.05;95755.81;4998436;28;19925;-68
2022/08/24 00:26:14;;;;;;;;;;;;;;;19.01;30.66;95757.00;5002471;28;20148;-68
2022/08/24 00:28:39;;;;;;;;;;;;;;;19.06;31.14;95752.56;5001202;28;20036;-68
2022/08/24 00:31:04;;;;;;;;;;;;;;;18.97;30.62;95750.41;4999625;28;19933;-68
2022/08/24 00:33:30;;;;;;;;;;;;;;;18.98;30.42;95758.28;5003167;28;19918;-68
2022/08/24 00:35:55;;;;;;;;;;;;;;;19.11;30.45;95756.44;5004679;28;19922;-68
2022/08/24 00:38:20;;;;;;;;;;;;;;;19.04;30.84;95761.94;5002131;28;19959;-68
2022/08/24 00:40:46;;;;;;;;;;;;;;;18.99;31.03;95759.91;5001965;28;19918;-68
2022/08/24 00:43:11;;;;;;;;;;;;;;;18.99;30.87;95759.09;5005210;28;20410;-69
2022/08/24 00:45:39;;;;;;;;;;;;;;;19.04;31.34;95759.25;4983425;28;19980;-69
2022/08/24 00:48:06;;;;;;;;;;;;;;;19.06;30.62;95757.13;4979590;28;20275;-69
2022/08/24 00:50:42;;;;;;;;;;;;;;;19.08;30.67;95752.31;4983971;28;19965;-69
2022/08/24 00:53:09;;;;;;;;;;;;;;;19.05;30.59;95756.31;4978639;28;19933;-69
2022/08/24 00:55:39;;;;;;;;;;;;;;;19.06;30.41;95757.94;4980360;28;19918;-69
2022/08/24 00:58:08;;;;;;;;;;;;;;;19.08;30.35;95753.13;4975324;28;19925;-69
2022/08/24 01:00:35;;;;;;;;;;;;;;;19.07;30.46;95753.38;4979618;28;20276;-69
2022/08/24 01:03:03;;;;;;;;;;;;;;;19.12;30.15;95752.69;4980249;28;20037;-69
2022/08/24 01:05:29;;;;;;;;;;;;;;;19.08;30.32;95753.13;4972271;28;20174;-69
2022/08/24 01:07:54;;;;;;;;;;;;;;;19.11;30.82;95753.75;4975210;28;19933;-69
2022/08/24 01:10:20;;;;;;;;;;;;;;;19.12;30.51;95753.50;4977377;28;19930;-69
2022/08/24 01:12:47;;;;;;;;;;;;;;;19.16;30.05;95753.88;4981146;28;19922;-69
2022/08/24 01:15:13;;;;;;;;;;;;;;;19.19;29.64;95764.19;4977945;28;20384;-69
2022/08/24 01:20:25;;;;;;;;;;;;;;;19.00;30.26;95766.94;4979179;28;19977;-69
2022/08/24 01:22:53;;;;;;;;;;;;;;;19.00;30.68;95769.66;4983321;28;19922;-69
2022/08/24 01:25:18;;;;;;;;;;;;;;;19.01;30.27;95765.91;4976800;28;20388;-69
2022/08/24 01:27:44;;;;;;;;;;;;;;;19.01;30.43;95771.31;4982153;28;19957;-67
2022/08/24 01:30:10;;;;;;;;;;;;;;;18.98;30.47;95760.13;4980044;28;20354;-67
2022/08/24 01:32:35;;;;;;;;;;;;;;;18.97;30.65;95761.19;4981921;28;19932;-68
2022/08/24 01:35:01;;;;;;;;;;;;;;;18.92;30.80;95754.63;4983834;28;20339;-68
2022/08/24 01:37:26;;;;;;;;;;;;;;;18.86;30.74;95763.59;4982485;28;20007;-68
2022/08/24 01:39:53;;;;;;;;;;;;;;;18.82;30.94;95760.56;4978129;28;20323;-68
2022/08/24 01:42:18;;;;;;;;;;;;;;;18.80;31.05;95761.84;4980105;28;19926;-68
2022/08/24 01:44:43;;;;;;;;;;;;;;;18.74;30.73;95762.75;4984362;28;19926;-69
2022/08/24 01:47:09;;;;;;;;;;;;;;;18.70;31.22;95765.06;5000217;28;19914;-69
2022/08/24 01:49:36;;;;;;;;;;;;;;;18.62;31.56;95765.34;5002321;28;20275;-69
2022/08/24 01:52:01;;;;;;;;;;;;;;;18.61;31.35;95766.41;5002917;28;20298;-69
2022/08/24 01:54:27;;;;;;;;;;;;;;;18.61;31.49;95766.41;4999673;28;19921;-69
2022/08/24 01:56:52;;;;;;;;;;;;;;;18.56;31.38;95765.19;5000958;28;19929;-69
2022/08/24 01:59:18;;;;;;;;;;;;;;;18.51;31.24;95764.22;5000833;28;20008;-69
2022/08/24 02:01:47;;;;;;;;;;;;;;;18.55;31.27;95776.19;5000925;28;20299;-69
2022/08/24 02:04:12;;;;;;;;;;;;;;;18.53;31.19;95771.03;4982531;28;19929;-69
2022/08/24 02:06:38;;;;;;;;;;;;;;;18.55;31.29;95765.41;4997881;28;19921;-69
2022/08/24 02:09:03;;;;;;;;;;;;;;;18.53;31.56;95762.94;5000748;28;19921;-69
2022/08/24 02:11:28;;;;;;;;;;;;;;;18.52;31.12;95768.56;4979559;28;19917;-69
2022/08/24 02:13:53;;;;;;;;;;;;;;;18.48;31.55;95772.75;4998480;28;20012;-69
2022/08/24 02:16:19;;;;;;;;;;;;;;;18.37;31.58;95772.47;4997179;28;19925;-69
2022/08/24 02:18:44;;;;;;;;;;;;;;;18.36;31.56;95776.19;5001911;28;20314;-69
2022/08/24 02:21:10;;;;;;;;;;;;;;;18.29;31.65;95773.56;5001916;28;19968;-69
2022/08/24 02:23:35;;;;;;;;;;;;;;;18.23;31.77;95779.88;4999649;28;19944;-69
2022/08/24 02:26:04;;;;;;;;;;;;;;;18.23;31.82;95779.88;5001942;28;19929;-69
2022/08/24 02:28:29;;;;;;;;;;;;;;;18.21;32.08;95779.25;4998565;28;19918;-69
2022/08/24 02:30:54;;;;;;;;;;;;;;;18.18;32.05;95777.00;5000585;28;20290;-69
2022/08/24 02:33:21;;;;;;;;;;;;;;;18.08;32.40;95779.41;4997716;28;19928;-69
2022/08/24 02:35:46;;;;;;;;;;;;;;;18.07;32.33;95781.28;4999596;28;20488;-69
2022/08/24 02:38:12;;;;;;;;;;;;;;;18.07;32.45;95778.56;4996403;28;20145;-69
2022/08/24 02:40:37;;;;;;;;;;;;;;;18.05;32.19;95786.88;5000443;28;19929;-69
2022/08/24 02:43:02;;;;;;;;;;;;;;;18.04;32.40;95782.53;5001255;28;20301;-69
2022/08/24 02:45:28;;;;;;;;;;;;;;;18.00;32.48;95777.81;5000477;28;19976;-69
2022/08/24 02:47:53;;;;;;;;;;;;;;;18.00;32.46;95783.19;4997808;28;19928;-69
2022/08/24 02:50:18;;;;;;;;;;;;;;;17.94;32.72;95782.22;4995106;28;20293;-69
2022/08/24 02:52:43;;;;;;;;;;;;;;;17.90;32.36;95783.69;5002225;28;19924;-69
2022/08/24 02:55:10;;;;;;;;;;;;;;;17.93;32.68;95783.25;5002112;28;20041;-69
2022/08/24 02:57:35;;;;;;;;;;;;;;;17.84;33.04;95787.25;5001836;28;19925;-69
2022/08/24 03:00:01;;;;;;;;;;;;;;;17.82;32.87;95784.78;5002356;28;19922;-69
2022/08/24 03:02:26;;;;;;;;;;;;;;;17.75;33.20;95784.81;5001194;28;19917;-69
2022/08/24 03:04:52;;;;;;;;;;;;;;;17.77;33.09;95780.06;4997888;28;19926;-69
2022/08/24 03:07:17;;;;;;;;;;;;;;;17.75;32.89;95784.03;5000320;28;19983;-69
2022/08/24 03:09:42;;;;;;;;;;;;;;;17.73;32.70;95783.41;4997936;28;20331;-69
2022/08/24 03:12:07;;;;;;;;;;;;;;;17.72;32.59;95790.66;5000309;28;19922;-69
2022/08/24 03:14:34;;;;;;;;;;;;;;;17.66;33.00;95786.16;5000007;28;19921;-69
2022/08/24 03:16:59;;;;;;;;;;;;;;;17.64;33.06;95789.06;4994867;28;19935;-69
2022/08/24 03:19:24;;;;;;;;;;;;;;;17.60;33.00;95784.31;5001497;28;19917;-69
2022/08/24 03:21:50;;;;;;;;;;;;;;;17.53;32.92;95782.53;4998312;28;19964;-69
2022/08/24 03:24:15;;;;;;;;;;;;;;;17.48;33.23;95786.91;4997870;28;20432;-69
2022/08/24 03:26:41;;;;;;;;;;;;;;;17.41;33.69;95778.91;5001705;28;19918;-69
2022/08/24 03:29:06;;;;;;;;;;;;;;;17.40;33.59;95782.59;4999470;28;19956;-69
2022/08/24 03:31:31;;;;;;;;;;;;;;;17.38;33.54;95787.41;4999574;28;19914;-69
2022/08/24 03:33:57;;;;;;;;;;;;;;;17.32;33.93;95777.50;4999326;28;19930;-69
2022/08/24 03:36:22;;;;;;;;;;;;;;;17.31;34.01;95778.53;4999573;28;19918;-69
2022/08/24 03:38:47;;;;;;;;;;;;;;;17.30;33.79;95774.22;5001141;28;20016;-69
2022/08/24 03:41:12;;;;;;;;;;;;;;;17.26;34.19;95785.41;4999848;28;19968;-69
2022/08/24 03:43:47;;;;;;;;;;;;;;;17.20;34.28;95774.69;5003189;28;20382;-69
2022/08/24 03:46:20;;;;;;;;;;;;;;;17.14;34.36;95776.38;4999309;28;20300;-69
2022/08/24 03:48:46;;;;;;;;;;;;;;;17.08;34.35;95772.66;4999754;28;19930;-69
2022/08/24 03:51:14;;;;;;;;;;;;;;;17.00;34.65;95773.72;5003589;28;19926;-69
2022/08/24 03:53:40;;;;;;;;;;;;;;;17.00;34.67;95776.41;5000593;28;19929;-69
2022/08/24 03:56:06;;;;;;;;;;;;;;;17.01;34.46;95788.84;5001718;28;19952;-69
2022/08/24 03:58:32;;;;;;;;;;;;;;;16.94;34.84;95779.97;5003241;28;19933;-69
2022/08/24 04:00:57;;;;;;;;;;;;;;;16.97;34.48;95782.25;4998297;28;20359;-68
2022/08/24 04:03:22;;;;;;;;;;;;;;;17.03;34.47;95784.06;5001144;28;19965;-68
2022/08/24 04:05:47;;;;;;;;;;;;;;;16.93;34.84;95783.69;5002721;28;19925;-68
2022/08/24 04:08:13;;;;;;;;;;;;;;;16.94;35.03;95787.22;5003932;28;19925;-68
2022/08/24 04:10:42;;;;;;;;;;;;;;;16.95;34.73;95778.09;5004070;28;19929;-69
2022/08/24 04:13:07;;;;;;;;;;;;;;;16.92;34.70;95781.25;4999995;28;19963;-68
2022/08/24 04:15:32;;;;;;;;;;;;;;;16.90;34.92;95773.38;5002908;28;19925;-68
2022/08/24 04:17:58;;;;;;;;;;;;;;;16.88;34.76;95776.28;4981412;28;20038;-69
2022/08/24 04:20:24;;;;;;;;;;;;;;;16.88;34.94;95781.66;5005165;28;19918;-69
2022/08/24 04:22:50;;;;;;;;;;;;;;;16.84;35.04;95777.75;5000705;28;19921;-69
2022/08/24 04:25:15;;;;;;;;;;;;;;;16.87;34.75;95776.50;5001954;28;20405;-69
2022/08/24 04:27:40;;;;;;;;;;;;;;;16.80;35.03;95770.31;5004215;28;19922;-68
2022/08/24 04:30:06;;;;;;;;;;;;;;;16.79;35.18;95772.16;5002659;28;20036;-68
2022/08/24 04:32:31;;;;;;;;;;;;;;;16.81;35.40;95782.72;5002918;28;20317;-68
2022/08/24 04:34:58;;;;;;;;;;;;;;;16.77;35.40;95780.44;5000616;28;19976;-68
2022/08/24 04:37:23;;;;;;;;;;;;;;;16.88;34.94;95778.13;5000611;28;20421;-68
2022/08/24 04:39:48;;;;;;;;;;;;;;;16.69;35.70;95779.88;4981150;28;19930;-68
2022/08/24 04:42:13;;;;;;;;;;;;;;;16.79;35.15;95780.25;4998765;28;19972;-68
2022/08/24 04:44:38;;;;;;;;;;;;;;;16.81;35.27;95788.94;5001903;28;19921;-68
2022/08/24 04:47:04;;;;;;;;;;;;;;;16.82;35.44;95789.75;5001242;28;20111;-68
2022/08/24 04:49:29;;;;;;;;;;;;;;;16.86;35.45;95786.41;5002793;28;20390;-68
2022/08/24 04:51:54;;;;;;;;;;;;;;;16.94;35.57;95788.03;4999922;28;19924;-69
2022/08/24 04:54:20;;;;;;;;;;;;;;;16.93;35.67;95791.75;4998233;28;19926;-68
2022/08/24 04:56:46;;;;;;;;;;;;;;;17.01;35.03;95793.38;4985139;28;19971;-68
2022/08/24 04:59:11;;;;;;;;;;;;;;;17.07;34.87;95797.06;5000276;28;19937;-69
2022/08/24 05:01:36;;;;;;;;;;;;;;;17.12;34.91;95798.13;5002463;28;20381;-69
2022/08/24 05:04:02;;;;;;;;;;;;;;;17.20;34.86;95797.03;5002041;28;20335;-68
2022/08/24 05:06:28;;;;;;;;;;;;;;;17.27;34.66;95802.38;5003625;28;20382;-69
2022/08/24 05:08:53;;;;;;;;;;;;;;;17.29;34.73;95802.97;4999271;28;19929;-68
2022/08/24 05:11:18;;;;;;;;;;;;;;;17.34;34.18;95807.72;4999941;28;19921;-68
2022/08/24 05:13:44;;;;;;;;;;;;;;;17.44;34.31;95804.53;5003370;28;20658;-69
2022/08/24 05:16:11;;;;;;;;;;;;;;;17.49;34.52;95802.84;4999693;28;20593;-69
2022/08/24 05:18:36;;;;;;;;;;;;;;;17.58;34.27;95803.41;4997716;28;19925;-69
2022/08/24 05:21:02;;;;;;;;;;;;;;;17.64;34.49;95799.03;5001918;28;19995;-68
2022/08/24 05:23:28;;;;;;;;;;;;;;;17.72;34.07;95803.31;4998740;28;20153;-68
2022/08/24 05:26:02;;;;;;;;;;;;;;;17.85;33.82;95805.06;4984410;28;20158;-69
2022/08/24 05:28:28;;;;;;;;;;;;;;;17.94;34.10;95801.06;4982167;28;19921;-69
2022/08/24 05:30:53;;;;;;;;;;;;;;;18.02;33.88;95795.41;5002795;28;19936;-69
2022/08/24 05:33:18;;;;;;;;;;;;;;;18.07;33.80;95808.22;5001968;28;20295;-69
2022/08/24 05:35:43;;;;;;;;;;;;;;;18.20;33.37;95801.88;5002844;28;19947;-69
2022/08/24 05:38:08;;;;;;;;;;;;;;;18.33;33.45;95800.91;5000168;28;20012;-69
2022/08/24 05:40:35;;;;;;;;;;;;;;;18.41;33.92;95808.72;4999205;28;19925;-69
2022/08/24 05:43:00;;;;;;;;;;;;;;;18.59;33.25;95807.06;5000610;28;19980;-69
2022/08/24 05:45:25;;;;;;;;;;;;;;;18.74;32.51;95809.41;4992271;28;19972;-69
2022/08/24 05:47:51;;;;;;;;;;;;;;;18.85;32.36;95815.91;5000530;28;19917;-69
2022/08/24 05:50:16;;;;;;;;;;;;;;;18.97;32.71;95813.28;5003039;28;19960;-69
2022/08/24 05:52:41;;;;;;;;;;;;;;;19.13;32.34;95811.81;4998579;28;19960;-69
2022/08/24 05:55:06;;;;;;;;;;;;;;;19.26;33.01;95815.38;4998513;28;19925;-69
2022/08/24 05:57:32;;;;;;;;;;;;;;;19.42;31.74;95812.06;5000158;28;19925;-68
2022/08/24 05:59:57;;;;;;;;;;;;;;;19.55;31.90;95821.84;4999627;28;19925;-69
2022/08/24 06:02:23;;;;;;;;;;;;;;;19.72;31.23;95823.88;5001043;28;19948;-69
2022/08/24 06:04:48;;;;;;;;;;;;;;;19.88;31.94;95818.84;5000572;28;19964;-68
2022/08/24 06:07:13;;;;;;;;;;;;;;;20.05;31.36;95822.53;4993638;28;19918;-68
2022/08/24 06:09:38;;;;;;;;;;;;;;;20.25;30.98;95821.34;5000293;28;20142;-68
2022/08/24 06:12:04;;;;;;;;;;;;;;;20.39;31.65;95823.84;5001694;28;19924;-68
2022/08/24 06:14:29;;;;;;;;;;;;;;;20.57;30.32;95822.88;5001577;28;20003;-68
2022/08/24 06:16:54;;;;;;;;;;;;;;;20.70;30.55;95817.22;4999149;28;20298;-69
2022/08/24 06:19:20;;;;;;;;;;;;;;;20.93;30.07;95820.09;4998690;28;19921;-68
2022/08/24 06:21:46;;;;;;;;;;;;;;;21.09;29.96;95815.81;5001025;28;20031;-68
2022/08/24 06:24:11;;;;;;;;;;;;;;;21.32;30.27;95819.53;5001572;28;20403;-68
2022/08/24 06:29:20;;;;;;;;;;;;;;;21.73;29.26;95820.25;4999396;28;20033;-68
2022/08/24 06:31:46;;;;;;;;;;;;;;;21.84;29.24;95823.13;5000638;28;19937;-68
2022/08/24 06:34:12;;;;;;;;;;;;;;;21.95;28.56;95818.72;5000469;28;20450;-68
2022/08/24 06:36:37;;;;;;;;;;;;;;;22.14;28.35;95822.84;4996556;28;20238;-68
2022/08/24 06:39:02;;;;;;;;;;;;;;;22.28;28.95;95828.72;4999968;28;19928;-68
2022/08/24 06:41:27;;;;;;;;;;;;;;;22.44;28.08;95825.41;4997185;28;20024;-69
2022/08/24 06:43:53;;;;;;;;;;;;;;;22.48;27.80;95835.50;5000410;28;20019;-68
2022/08/24 06:46:18;;;;;;;;;;;;;;;22.50;27.19;95829.84;4994827;28;19965;-68
2022/08/24 06:48:43;;;;;;;;;;;;;;;22.64;27.54;95831.13;5002446;28;20429;-68
2022/08/24 06:51:09;;;;;;;;;;;;;;;22.98;26.99;95829.38;4998449;28;20421;-68
2022/08/24 06:53:35;;;;;;;;;;;;;;;23.16;27.28;95831.81;4995863;28;19945;-68
2022/08/24 06:56:02;;;;;;;;;;;;;;;23.24;26.18;95832.41;4997091;28;20305;-68
2022/08/24 06:58:27;;;;;;;;;;;;;;;23.33;26.49;95840.91;4998440;28;20018;-68
2022/08/24 07:00:54;;;;;;;;;;;;;;;23.55;26.00;95838.16;5000757;28;19925;-68
2022/08/24 07:03:19;;;;;;;;;;;;;;;23.68;26.05;95840.47;4996752;28;19928;-69
2022/08/24 07:05:50;;;;;;;;;;;;;;;23.78;25.65;95841.66;5000447;28;19921;-68
2022/08/24 07:08:16;;;;;;;;;;;;;;;23.87;25.71;95848.28;4997955;28;19936;-68
2022/08/24 07:10:41;;;;;;;;;;;;;;;23.70;25.51;95848.38;4999898;28;20387;-68
2022/08/24 07:13:06;;;;;;;;;;;;;;;23.84;24.89;95854.22;4999580;28;19952;-68
2022/08/24 07:15:33;;;;;;;;;;;;;;;24.06;24.98;95853.31;4999671;28;19922;-68
2022/08/24 07:17:58;;;;;;;;;;;;;;;24.09;24.81;95852.78;4997704;28;20388;-68
2022/08/24 07:20:23;;;;;;;;;;;;;;;24.06;24.90;95858.75;4996048;28;20050;-68
2022/08/24 07:22:49;;;;;;;;;;;;;;;24.26;25.03;95860.81;4992122;28;19937;-68
2022/08/24 07:25:14;;;;;;;;;;;;;;;24.28;24.50;95861.38;4997383;28;19992;-68
2022/08/24 07:27:39;;;;;;;;;;;;;;;24.59;24.66;95866.22;4994724;28;19921;-68
2022/08/24 07:30:05;;;;;;;;;;;;;;;24.57;24.47;95860.19;4999959;28;20028;-68
2022/08/24 07:32:31;;;;;;;;;;;;;;;24.67;24.32;95862.16;5001217;28;20294;-68
2022/08/24 07:34:56;;;;;;;;;;;;;;;24.92;24.28;95866.94;4998491;28;19917;-68
2022/08/24 07:37:21;;;;;;;;;;;;;;;24.83;24.23;95868.53;5001694;28;20016;-68
2022/08/24 07:39:47;;;;;;;;;;;;;;;25.12;24.16;95875.50;4998769;28;19918;-68
2022/08/24 07:42:12;;;;;;;;;;;;;;;24.86;24.16;95873.44;4998291;28;20301;-68
2022/08/24 07:44:37;;;;;;;;;;;;;;;25.00;24.21;95871.09;4999731;28;19963;-68
2022/08/24 07:47:03;;;;;;;;;;;;;;;25.19;23.60;95874.16;4999895;28;19946;-68
2022/08/24 07:49:28;;;;;;;;;;;;;;;25.35;23.40;95880.47;4997395;28;20330;-68
2022/08/24 07:51:53;;;;;;;;;;;;;;;25.28;23.47;95881.78;5001307;28;20309;-68
2022/08/24 07:54:19;;;;;;;;;;;;;;;25.33;23.31;95877.19;4996785;28;19928;-68
2022/08/24 07:56:44;;;;;;;;;;;;;;;25.20;24.38;95883.97;4981699;28;19928;-68
2022/08/24 07:59:10;;;;;;;;;;;;;;;25.44;23.53;95879.94;4992094;28;19934;-68
2022/08/24 08:01:35;;;;;;;;;;;;;;;25.54;23.36;95888.19;4997263;28;20008;-68
2022/08/24 08:04:01;;;;;;;;;;;;;;;26.07;22.73;95880.94;5000446;28;19922;-69
2022/08/24 08:06:26;;;;;;;;;;;;;;;26.01;22.93;95893.72;4996782;28;20007;-68
2022/08/24 08:08:51;;;;;;;;;;;;;;;26.01;22.70;95881.97;4999325;28;19983;-69
2022/08/24 08:11:16;;;;;;;;;;;;;;;26.16;22.74;95894.81;4998393;28;20569;-68
2022/08/24 08:13:42;;;;;;;;;;;;;;;25.98;22.50;95892.34;5000622;28;20285;-68
2022/08/24 08:16:07;;;;;;;;;;;;;;;26.26;22.48;95897.56;4997017;28;19988;-68
2022/08/24 08:18:32;;;;;;;;;;;;;;;26.21;22.68;95892.91;4991038;28;20414;-68
2022/08/24 08:20:57;;;;;;;;;;;;;;;26.51;22.32;95898.63;4980981;28;20309;-69
2022/08/24 08:26:07;;;;;;;;;;;;;;;26.80;22.34;95894.50;4996552;28;20298;-71
2022/08/24 08:28:32;;;;;;;;;;;;;;;27.03;22.01;95900.44;5002531;28;20055;-70
2022/08/24 08:30:58;;;;;;;;;;;;;;;26.94;21.68;95898.28;4996470;28;19930;-70
2022/08/24 08:33:24;;;;;;;;;;;;;;;26.93;21.72;95901.31;5003074;28;20380;-70
2022/08/24 08:35:49;;;;;;;;;;;;;;;27.20;21.38;95900.16;5003727;28;19921;-70
2022/08/24 08:38:14;;;;;;;;;;;;;;;26.96;21.44;95898.00;5003711;28;20449;-70
2022/08/24 08:40:47;;;;;;;;;;;;;;;27.12;21.61;95901.53;5001118;28;20271;-70
2022/08/24 08:43:12;;;;;;;;;;;;;;;27.45;21.17;95907.41;5000585;28;20357;-70
2022/08/24 08:45:47;;;;;;;;;;;;;;;27.08;20.90;95909.44;4999791;28;20436;-70
2022/08/24 08:48:12;;;;;;;;;;;;;;;27.15;21.75;95911.09;5001362;28;20040;-70
2022/08/24 08:50:56;;;;;;;;;;;;;;;27.14;21.53;95907.53;5002464;28;19937;-71
2022/08/24 08:53:27;;;;;;;;;;;;;;;27.14;22.01;95907.53;4999737;28;20008;-70
2022/08/24 08:55:57;;;;;;;;;;;;;;;27.40;21.86;95899.25;4985749;28;19922;-70
2022/08/24 08:58:49;;;;;;;;;;;;;;;27.74;21.67;95908.66;4982699;28;19930;-78
2022/08/24 09:01:18;;;;;;;;;;;;;;;27.99;21.47;95904.94;5000702;28;19921;-77
2022/08/24 09:04:01;;;;;;;;;;;;;;;28.01;21.36;95905.44;5000815;28;19921;-75
2022/08/24 09:06:45;;;;;;;;;;;;;;;28.39;21.11;95904.09;4983921;28;20021;-78
2022/08/24 09:09:18;;;;;;;;;;;;;;;28.28;20.76;95900.63;5002911;28;20353;-78
2022/08/24 09:11:47;;;;;;;;;;;;;;;28.83;20.10;95912.47;4983042;28;20386;-78
2022/08/24 09:14:15;;;;;;;;;;;;;;;28.72;20.32;95906.28;4997451;28;20301;-78
2022/08/24 09:16:46;;;;;;;;;;;;;;;29.00;19.80;95910.09;5000587;28;19913;-78
2022/08/24 09:19:29;;;;;;;;;;;;;;;29.23;19.55;95907.63;5002566;28;19970;-80
2022/08/24 09:21:59;;;;;;;;;;;;;;;29.55;18.80;95908.91;4999602;28;20001;-78
2022/08/24 09:24:34;;;;;;;;;;;;;;;29.81;18.76;95908.53;4982421;28;19918;-79
2022/08/24 09:27:18;;;;;;;;;;;;;;;29.75;19.45;95907.00;4983945;28;20310;-79
2022/08/24 09:29:59;;;;;;;;;;;;;;;29.65;18.89;95907.09;4980629;28;20013;-79
2022/08/24 09:32:24;;;;;;;;;;;;;;;29.74;18.98;95905.34;4988454;28;19917;-78
2022/08/24 09:34:53;;;;;;;;;;;;;;;30.20;18.35;95911.28;5002073;28;19927;-77
2022/08/24 09:37:31;;;;;;;;;;;;;;;29.85;17.66;95910.69;4981432;28;20173;-78
2022/08/24 09:40:01;;;;;;;;;;;;;;;29.43;18.45;95909.31;4997585;28;19921;-78
2022/08/24 09:42:26;;;;;;;;;;;;;;;30.04;18.06;95899.69;4984485;28;19953;-76
2022/08/24 09:44:56;;;;;;;;;;;;;;;30.36;18.04;95900.06;4983315;28;19968;-79
2022/08/24 09:47:21;;;;;;;;;;;;;;;30.83;16.47;95895.38;4982229;28;19917;-77
2022/08/24 09:49:50;;;;;;;;;;;;;;;30.70;16.86;95896.19;5001346;28;19948;-77
2022/08/24 09:52:20;;;;;;;;;;;;;;;30.89;17.01;95904.34;4998165;28;20012;-77
2022/08/24 09:54:48;;;;;;;;;;;;;;;30.80;17.04;95901.50;4981801;28;20371;-78
2022/08/24 09:57:26;;;;;;;;;;;;;;;30.67;17.17;95907.78;4997968;28;19925;-77
2022/08/24 09:59:55;;;;;;;;;;;;;;;31.00;17.35;95902.22;4984460;28;19917;-78
2022/08/24 10:02:30;;;;;;;;;;;;;;;31.10;16.36;95896.50;4999523;28;20422;-78
2022/08/24 10:05:35;;;;;;;;;;;;;;;31.47;16.08;95890.31;4982705;28;19944;-78
2022/08/24 10:08:02;;;;;;;;;;;;;;;30.94;17.36;95892.44;4944894;28;19914;-79
2022/08/24 10:10:27;;;;;;;;;;;;;;;31.40;16.68;95885.19;4944518;28;19922;-79
2022/08/24 10:12:56;;;;;;;;;;;;;;;31.93;15.63;95884.88;4970267;28;19921;-79
2022/08/24 10:15:22;;;;;;;;;;;;;;;31.79;15.21;95888.50;5002796;28;20263;-79
2022/08/24 10:17:54;;;;;;;;;;;;;;;32.20;15.02;95880.41;4983072;28;19948;-77
2022/08/24 10:20:22;;;;;;;;;;;;;;;30.97;16.22;95887.13;5001494;28;19956;-79
2022/08/24 10:23:03;;;;;;;;;;;;;;;31.73;15.90;95881.50;5002255;28;19917;-79
2022/08/24 10:25:29;;;;;;;;;;;;;;;31.43;16.02;95876.34;4967007;28;20290;-76
2022/08/24 10:28:09;;;;;;;;;;;;;;;31.90;15.95;95877.25;5000174;28;19920;-79
2022/08/24 10:30:53;;;;;;;;;;;;;;;31.68;15.73;95874.16;4994265;28;20385;-78
2022/08/24 10:33:20;;;;;;;;;;;;;;;32.39;15.16;95879.41;5001165;28;19971;-76
2022/08/24 10:36:09;;;;;;;;;;;;;;;32.89;14.21;95875.59;4984350;28;19964;-77
2022/08/24 10:41:40;;;;;;;;;;;;;;;33.74;13.87;95872.91;4999807;28;20197;-77
2022/08/24 10:44:05;;;;;;;;;;;;;;;33.31;13.63;95880.81;4984084;28;20306;-79
2022/08/24 10:46:37;;;;;;;;;;;;;;;33.39;12.64;95871.72;5000866;28;19929;-77
2022/08/24 10:49:12;;;;;;;;;;;;;;;33.69;13.27;95873.06;4980520;28;19917;-77
2022/08/24 10:52:00;;;;;;;;;;;;;;;33.30;15.00;95862.59;5001932;28;20324;-77
2022/08/24 10:54:26;;;;;;;;;;;;;;;33.31;13.35;95864.25;4992375;28;20000;-77
2022/08/24 10:57:07;;;;;;;;;;;;;;;33.70;13.35;95861.72;4981804;28;20564;-77
2022/08/24 10:59:32;;;;;;;;;;;;;;;33.87;13.33;95860.91;4999260;28;20133;-78
2022/08/24 11:02:00;;;;;;;;;;;;;;;33.97;13.32;95861.72;5000620;28;20326;-77
2022/08/24 11:04:27;;;;;;;;;;;;;;;34.03;12.90;95863.97;5002016;28;19948;-77
2022/08/24 11:07:09;;;;;;;;;;;;;;;34.20;13.97;95864.28;4982356;28;19925;-78
2022/08/24 11:09:46;;;;;;;;;;;;;;;34.36;13.04;95862.66;4982506;28;19945;-78
2022/08/24 11:12:35;;;;;;;;;;;;;;;34.40;14.10;95866.38;5001014;28;19921;-78
2022/08/24 11:15:06;;;;;;;;;;;;;;;34.03;13.29;95868.72;4992989;28;20367;-78
2022/08/24 11:17:31;;;;;;;;;;;;;;;33.94;13.35;95873.41;4981564;28;20308;-78
2022/08/24 11:19:58;;;;;;;;;;;;;;;33.65;12.90;95868.19;4977944;28;20444;-75
2022/08/24 11:22:29;;;;;;;;;;;;;;;33.68;13.13;95855.69;4978286;28;19921;-75
2022/08/24 11:24:58;;;;;;;;;;;;;;;32.68;14.43;95862.41;4996734;28;20339;-75
2022/08/24 11:27:27;;;;;;;;;;;;;;;32.91;13.95;95861.50;4981857;28;19959;-75
2022/08/24 11:29:53;;;;;;;;;;;;;;;33.17;13.97;95858.06;4996926;28;19929;-73
2022/08/24 11:32:27;;;;;;;;;;;;;;;32.98;14.46;95862.72;4997946;28;19921;-73
2022/08/24 11:34:53;;;;;;;;;;;;;;;33.56;13.18;95859.13;4996697;28;20275;-74
2022/08/24 11:37:21;;;;;;;;;;;;;;;33.53;14.50;95859.75;4999691;28;19933;-74
2022/08/24 11:39:47;;;;;;;;;;;;;;;33.59;13.87;95854.88;4998645;28;19917;-74
2022/08/24 11:42:14;;;;;;;;;;;;;;;33.08;15.13;95861.59;4997648;28;19928;-74
2022/08/24 11:44:45;;;;;;;;;;;;;;;33.42;13.02;95850.13;4979871;28;19995;-74
2022/08/24 11:47:28;;;;;;;;;;;;;;;33.40;13.54;95847.69;4998576;28;19953;-74
2022/08/24 11:49:57;;;;;;;;;;;;;;;33.33;13.74;95856.47;4981700;28;19929;-73
2022/08/24 11:52:29;;;;;;;;;;;;;;;33.06;13.61;95852.81;4981392;28;19918;-75
2022/08/24 11:55:11;;;;;;;;;;;;;;;31.99;13.80;95845.91;4999005;28;19917;-75
2022/08/24 11:57:39;;;;;;;;;;;;;;;32.94;13.46;95847.09;4972062;28;19948;-74
2022/08/24 12:00:10;;;;;;;;;;;;;;;32.77;14.92;95848.66;4997339;28;19922;-74
2022/08/24 12:02:43;;;;;;;;;;;;;;;32.69;13.68;95850.25;4981118;28;20000;-75
2022/08/24 12:05:19;;;;;;;;;;;;;;;32.83;13.02;95850.13;4985623;28;19929;-78
2022/08/24 12:08:06;;;;;;;;;;;;;;;32.34;14.63;95844.53;5004346;28;19944;-80
2022/08/24 12:10:40;;;;;;;;;;;;;;;33.38;13.69;95842.50;4978953;28;20461;-80
2022/08/24 12:13:08;;;;;;;;;;;;;;;33.58;12.60;95845.78;4988667;28;20427;-79
2022/08/24 12:15:40;;;;;;;;;;;;;;;34.34;12.16;95850.31;4987931;28;20386;-78
2022/08/24 12:18:14;;;;;;;;;;;;;;;35.37;11.48;95845.84;5004929;28;20418;-80
2022/08/24 12:20:42;;;;;;;;;;;;;;;35.00;12.10;95848.31;4999456;28;20234;-79
2022/08/24 12:23:10;;;;;;;;;;;;;;;35.50;11.28;95840.38;4984646;28;20351;-80
2022/08/24 12:28:30;;;;;;;;;;;;;;;35.49;11.15;95838.75;5004569;28;20405;-82
2022/08/24 12:30:56;;;;;;;;;;;;;;;35.75;11.60;95832.22;4986147;28;19925;-80
2022/08/24 12:33:24;;;;;;;;;;;;;;;35.41;10.63;95838.47;5004290;28;19999;-78
2022/08/24 12:35:52;;;;;;;;;;;;;;;35.77;11.37;95838.22;4986088;28;19917;-81
2022/08/24 12:38:32;;;;;;;;;;;;;;;36.22;10.56;95846.97;4985465;28;19917;-79
2022/08/24 12:40:59;;;;;;;;;;;;;;;34.00;11.77;95836.22;4984337;28;19917;-81
2022/08/24 12:43:28;;;;;;;;;;;;;;;35.53;11.10;95837.75;4988597;28;20024;-79
2022/08/24 12:45:58;;;;;;;;;;;;;;;36.58;10.19;95840.72;5004321;28;19960;-81
2022/08/24 12:48:34;;;;;;;;;;;;;;;36.94;9.86;95832.00;4985800;28;20294;-79
2022/08/24 12:51:04;;;;;;;;;;;;;;;37.35;9.42;95832.09;4986789;28;20463;-79
2022/08/24 12:53:29;;;;;;;;;;;;;;;36.94;9.73;95834.78;4981767;28;19925;-81
2022/08/24 12:55:54;;;;;;;;;;;;;;;36.32;10.18;95827.13;5004218;28;19950;-78
2022/08/24 12:58:28;;;;;;;;;;;;;;;36.41;10.62;95832.56;5004009;28;20298;-81
2022/08/24 13:00:54;;;;;;;;;;;;;;;37.30;10.27;95829.53;5002634;28;20132;-82
2022/08/24 13:03:25;;;;;;;;;;;;;;;37.51;10.15;95828.59;4984449;28;20096;-82
2022/08/24 13:05:52;;;;;;;;;;;;;;;38.02;9.91;95833.59;4983851;28;19921;-79